MDT,Max TemperatureF,Mean TemperatureF,Min TemperatureF,Max Dew PointF,MeanDew PointF,Min DewpointF,Max Humidity, Mean Humidity, Min Humidity, Max Sea Level PressureIn, Mean Sea Level PressureIn, Min Sea Level PressureIn, Max VisibilityMiles, Mean VisibilityMiles, Min VisibilityMiles, Max Wind SpeedMPH, Mean Wind SpeedMPH, Max Gust SpeedMPH,PrecipitationIn, CloudCover, Events, WindDirDegrees
2013-9-1,86,69,52,54,48,38,93,53,20,29.99,29.90,29.79,10,10,10,23,3,33,0.00,0,,205
2013-9-2,88,72,57,56,48,42,80,50,21,30.02,29.93,29.86,10,10,10,12,4,20,0.11,3,,296
2013-9-3,84,71,61,59,53,45,84,61,28,30.33,30.01,29.91,10,9,2,17,4,32,0.20,4,Rain,148
2013-9-4,86,69,54,54,49,40,90,55,21,30.27,30.01,29.92,10,10,10,23,3,31,0.00,1,,68
2013-9-5,87,66,48,50,41,30,89,48,14,30.10,30.02,29.95,10,10,9,10,2,,0.00,2,,191
2013-9-6,87,66,46,42,36,26,71,39,12,30.09,29.98,29.88,10,10,8,8,2,,0.00,1,,105
2013-9-7,84,66,50,50,44,37,68,47,19,29.99,29.93,29.86,10,10,5,31,4,45,0.00,2,,198
2013-9-8,78,66,57,56,52,46,93,74,36,30.19,29.95,29.83,10,8,0,15,4,26,0.69,6,Rain,273
2013-9-9,73,64,55,56,54,50,94,84,44,30.16,29.90,29.75,10,7,2,15,3,31,0.76,7,Rain,33
2013-9-10,70,60,53,57,54,50,94,86,63,30.17,29.96,29.79,,,,10,4,,0.59,7,Rain,132
2013-9-11,72,60,48,54,49,44,100,75,39,30.27,30.01,29.93,,,,9,2,,0.01,3,,197
2013-9-12,75,62,50,55,50,48,93,74,43,30.24,29.97,29.88,10,10,10,14,2,18,0.00,4,Rain,16
2013-9-13,75,61,50,54,51,48,97,81,48,30.13,29.91,29.79,10,9,1,23,4,32,0.23,4,Rain,54
2013-9-14,75,58,44,54,48,45,100,80,38,30.14,29.92,29.74,10,8,0,9,1,16,0.03,3,Fog-Rain,193
2013-9-15,71,58,46,55,50,46,100,82,49,30.22,30.01,29.83,10,8,1,10,2,17,0.33,2,Rain,42
2013-9-16,79,61,45,52,47,43,100,74,31,30.27,30.05,29.91,10,8,1,12,2,17,0.00,1,,189
2013-9-17,78,62,46,51,47,41,100,70,29,30.25,29.96,29.77,10,8,1,15,2,21,0.00,1,,189
2013-9-18,79,64,50,53,46,39,89,54,27,29.87,29.77,29.70,10,10,10,17,5,28,0.00,2,,221
2013-9-19,79,62,46,40,36,30,79,41,19,29.92,29.83,29.76,10,10,10,8,1,16,0.00,0,,278
2013-9-20,79,60,42,43,39,33,89,50,19,29.98,29.90,29.84,10,10,10,15,2,21,0.00,2,,209
2013-9-21,75,58,44,52,46,41,89,63,31,30.08,29.86,29.74,10,10,6,9,2,21,0.02,3,Rain,247
2013-9-22,71,58,44,48,41,22,90,59,28,29.82,29.66,29.45,10,9,2,32,9,48,0.13,3,Rain,218
2013-9-23,68,51,34,36,31,23,89,51,19,30.07,29.92,29.76,10,10,10,13,4,18,0.00,0,,331
2013-9-24,73,52,30,33,26,14,89,51,10,30.18,30.04,29.87,10,10,10,9,3,,0.00,0,,210
2013-9-25,75,56,39,34,26,19,79,26,16,29.86,29.67,29.61,10,10,10,25,13,40,0.00,0,,202
2013-9-26,71,59,48,34,25,21,44,28,18,29.70,29.63,29.58,10,10,10,26,11,41,0.00,1,,198
2013-9-27,57,48,37,44,30,10,87,57,17,30.10,29.85,29.57,10,10,6,15,6,24,0.06,5,Rain,277
2013-9-28,66,44,25,27,21,13,85,47,16,30.24,30.17,30.12,10,10,10,6,1,,0.00,0,,113
2013-9-29,73,49,26,25,21,13,84,42,10,30.26,30.13,30.03,10,10,10,15,2,20,0.00,0,,269
2013-9-30,75,54,32,27,21,12,75,37,10,30.07,29.97,29.89,10,10,10,10,2,18,0.00,0,,283